Time;durP1;ratioP1;P1;durP2;ratioP2;P2;SDS_P1;SDS_P2;PMS_P1;PMS_P2;Temp;Humidity;BMP_temperature;BMP_pressure;BME280_temperature;BME280_humidity;BME280_pressure;Samples;Min_cycle;Max_cycle;Signal;HPM_P1;HPM_P2
2024/04/25 00:01:44;;;;;;;7.43;3.05;;;;;;;7.65;58.28;100944.31;5370361;26;98851;-88
2024/04/25 00:04:09;;;;;;;6.53;2.50;;;;;;;7.65;57.94;100951.19;5369658;26;94809;-88
2024/04/25 00:06:35;;;;;;;5.20;3.10;;;;;;;7.65;58.18;100948.59;5361420;26;94915;-87
2024/04/25 00:09:00;;;;;;;5.63;2.10;;;;;;;7.63;57.91;100946.88;5393351;25;95657;-87
2024/04/25 00:11:26;;;;;;;10.15;2.25;;;;;;;7.62;57.81;100947.69;5385945;25;100659;-87
2024/04/25 00:13:53;;;;;;;8.43;3.25;;;;;;;7.59;57.99;100942.44;5382357;26;94804;-87
2024/04/25 00:16:20;;;;;;;9.75;2.40;;;;;;;7.56;58.55;100938.88;5393343;25;95041;-87
2024/04/25 00:18:45;;;;;;;10.52;2.72;;;;;;;7.55;58.59;100942.31;5391360;25;95493;-88
2024/04/25 00:21:11;;;;;;;6.32;2.78;;;;;;;7.56;58.89;100938.88;5368441;25;98530;-88
2024/04/25 00:23:36;;;;;;;9.65;2.70;;;;;;;7.62;58.97;100941.63;5405206;25;94822;-88
2024/04/25 00:26:02;;;;;;;11.55;2.13;;;;;;;7.66;58.72;100937.41;5389983;25;95036;-87
2024/04/25 00:28:28;;;;;;;7.72;2.83;;;;;;;7.72;59.12;100945.31;5358563;26;94991;-87
2024/04/25 00:30:54;;;;;;;6.03;2.75;;;;;;;7.77;59.00;100943.72;5384901;25;95803;-87
2024/04/25 00:33:19;;;;;;;7.78;3.00;;;;;;;7.82;58.95;100934.34;5403541;25;95218;-86
2024/04/25 00:35:46;;;;;;;6.28;2.58;;;;;;;7.87;58.88;100934.47;5359875;25;94984;-86
2024/04/25 00:38:12;;;;;;;6.70;2.47;;;;;;;7.91;59.01;100925.91;5368212;26;97796;-87
2024/04/25 00:40:37;;;;;;;6.82;2.17;;;;;;;7.96;59.30;100926.91;5356038;26;98738;-87
2024/04/25 00:43:04;;;;;;;9.05;1.85;;;;;;;8.02;59.09;100934.81;5363575;26;95009;-87
2024/04/25 00:45:32;;;;;;;7.63;1.90;;;;;;;8.06;59.06;100917.63;5396490;25;95690;-86
2024/04/25 00:47:59;;;;;;;7.68;1.90;;;;;;;8.11;59.07;100918.59;5383912;25;98639;-87
2024/04/25 00:50:25;;;;;;;9.40;2.60;;;;;;;8.16;59.12;100924.78;5360599;25;98502;-87
2024/04/25 00:52:51;;;;;;;8.07;2.40;;;;;;;8.19;59.08;100917.94;5373373;25;94850;-87
2024/04/25 00:55:17;;;;;;;6.78;2.38;;;;;;;8.25;58.96;100911.13;5360163;25;94941;-86
2024/04/25 00:57:43;;;;;;;7.20;2.60;;;;;;;8.29;59.04;100913.84;5365876;26;98009;-86
2024/04/25 01:00:11;;;;;;;5.55;1.50;;;;;;;8.32;58.84;100913.88;5345893;25;98814;-86
2024/04/25 01:02:37;;;;;;;4.88;1.60;;;;;;;8.36;58.81;100904.47;5391452;25;94854;-86
2024/04/25 01:05:03;;;;;;;6.10;1.73;;;;;;;8.39;58.75;100909.72;5366538;25;95019;-86
2024/04/25 01:07:28;;;;;;;5.45;2.05;;;;;;;8.39;58.85;100901.91;5391778;25;96097;-86
2024/04/25 01:09:56;;;;;;;3.97;1.25;;;;;;;8.41;58.42;100892.44;5379768;26;95971;-86
2024/04/25 01:12:23;;;;;;;4.35;1.67;;;;;;;8.42;58.37;100888.13;5379649;25;94887;-87
2024/04/25 01:14:48;;;;;;;7.60;2.65;;;;;;;8.43;58.59;100896.00;5393190;25;94893;-86
2024/04/25 01:17:14;;;;;;;5.78;1.30;;;;;;;8.41;58.62;100889.81;5385971;25;98453;-86
2024/04/25 01:19:39;;;;;;;6.70;2.28;;;;;;;8.39;58.53;100889.81;5398538;25;98494;-86
2024/04/25 01:22:05;;;;;;;5.20;2.20;;;;;;;8.38;58.18;100889.78;5402207;25;95434;-87
2024/04/25 01:24:34;;;;;;;4.70;1.35;;;;;;;8.33;58.18;100891.41;5367180;25;94838;-86
2024/04/25 01:27:01;;;;;;;6.57;1.80;;;;;;;8.30;58.15;100889.59;5347639;26;98372;-87
2024/04/25 01:29:28;;;;;;;9.07;2.65;;;;;;;8.25;58.08;100880.81;5360805;26;98823;-86
2024/04/25 01:31:54;;;;;;;6.28;1.67;;;;;;;8.20;57.94;100883.31;5385173;26;94805;-87
2024/04/25 01:34:20;;;;;;;5.20;2.28;;;;;;;8.18;58.11;100879.81;5385695;25;94905;-87
2024/04/25 01:36:46;;;;;;;4.30;1.60;;;;;;;8.16;57.94;100875.41;5389393;25;95594;-87
2024/04/25 01:39:13;;;;;;;9.65;1.30;;;;;;;8.12;58.17;100879.66;5366424;26;98313;-86
2024/04/25 01:41:38;;;;;;;4.70;1.77;;;;;;;8.09;57.97;100874.41;5361469;26;94805;-86
2024/04/25 01:44:04;;;;;;;6.20;2.40;;;;;;;8.07;57.96;100872.59;5358668;26;95084;-86
2024/04/25 01:46:30;;;;;;;6.10;2.50;;;;;;;8.04;57.92;100869.94;5357981;25;98366;-86
2024/04/25 01:48:56;;;;;;;5.70;1.33;;;;;;;7.99;58.04;100870.72;5361759;26;98915;-86
2024/04/25 01:51:21;;;;;;;4.85;1.40;;;;;;;7.95;57.86;100868.91;5398304;25;94780;-86
2024/04/25 01:53:47;;;;;;;5.93;1.40;;;;;;;7.91;57.97;100858.38;5384058;25;94898;-86
2024/04/25 01:56:13;;;;;;;6.57;1.77;;;;;;;7.87;58.00;100864.34;5361152;25;98748;-87
2024/04/25 01:58:39;;;;;;;5.28;1.45;;;;;;;7.82;57.79;100862.53;5370132;26;98769;-88
2024/04/25 02:01:04;;;;;;;6.30;1.60;;;;;;;7.79;57.90;100870.25;5386529;25;94912;-87
2024/04/25 02:03:30;;;;;;;5.30;2.40;;;;;;;7.75;57.82;100862.31;5396698;25;94845;-87
2024/04/25 02:05:55;;;;;;;3.95;1.08;;;;;;;7.71;58.03;100865.69;5378879;25;98647;-88
2024/04/25 02:08:21;;;;;;;4.30;1.90;;;;;;;7.67;57.75;100862.16;5355809;26;98751;-88
2024/04/25 02:10:47;;;;;;;4.47;1.23;;;;;;;7.64;57.82;100849.09;5384098;25;94966;-87
2024/04/25 02:13:12;;;;;;;5.57;1.40;;;;;;;7.60;57.88;100855.91;5389781;25;95017;-88
2024/04/25 02:15:38;;;;;;;3.55;1.75;;;;;;;7.58;58.06;100854.13;5382684;25;95723;-88
2024/04/25 02:18:04;;;;;;;5.25;2.15;;;;;;;7.55;58.13;100856.66;5372250;25;98857;-88
2024/04/25 02:26:01;;;;;;;3.78;2.20;;;;;;;7.43;58.48;100871.09;5376256;26;97768;-88
2024/04/25 02:28:27;;;;;;;7.28;2.45;;;;;;;7.42;58.51;100860.66;5361011;25;97866;-87
2024/04/25 02:30:52;;;;;;;6.53;2.70;;;;;;;7.43;58.44;100867.59;5370779;26;94987;-87
2024/04/25 02:33:18;;;;;;;4.30;1.38;;;;;;;7.43;58.58;100859.81;5397866;25;95083;-87
2024/04/25 02:35:43;;;;;;;5.72;2.50;;;;;;;7.42;58.60;100861.53;5357109;26;108392;-87
2024/04/25 02:38:08;;;;;;;9.00;2.47;;;;;;;7.43;58.51;100852.91;5390971;25;98402;-88
2024/04/25 02:40:34;;;;;;;5.18;2.35;;;;;;;7.45;58.62;100852.97;5397689;26;94885;-87
2024/04/25 02:42:59;;;;;;;6.70;1.60;;;;;;;7.48;58.59;100852.16;5388521;26;94878;-88
2024/04/25 02:45:24;;;;;;;4.05;2.20;;;;;;;7.49;58.66;100839.22;5390742;25;94769;-87
2024/04/25 02:47:50;;;;;;;8.32;2.90;;;;;;;7.48;58.89;100834.84;5390012;25;95544;-88
2024/04/25 02:50:15;;;;;;;6.72;2.22;;;;;;;7.50;58.81;100837.47;5393953;25;94887;-87
2024/04/25 02:52:41;;;;;;;5.07;1.73;;;;;;;7.49;58.95;100840.94;5402181;25;108616;-87
2024/04/25 02:55:06;;;;;;;7.82;2.65;;;;;;;7.48;58.96;100841.75;5402396;25;98587;-87
2024/04/25 02:57:32;;;;;;;4.72;1.55;;;;;;;7.50;58.94;100829.69;5362579;25;96996;-87
2024/04/25 02:59:57;;;;;;;4.63;1.60;;;;;;;7.54;59.12;100824.63;5377179;25;95008;-87
2024/04/25 03:02:23;;;;;;;8.15;1.90;;;;;;;7.60;59.16;100816.13;5393748;25;95168;-87
2024/04/25 03:04:48;;;;;;;9.07;1.80;;;;;;;7.67;59.27;100812.81;5390397;25;95776;-87
2024/04/25 03:07:13;;;;;;;5.80;1.98;;;;;;;7.73;59.22;100810.34;5364722;25;98371;-86
2024/04/25 03:09:39;;;;;;;5.47;1.50;;;;;;;7.77;59.11;100800.91;5362065;26;94862;-87
2024/04/25 03:12:05;;;;;;;6.32;1.63;;;;;;;7.81;58.99;100806.22;5394157;25;94899;-87
2024/04/25 03:14:30;;;;;;;3.45;1.60;;;;;;;7.83;58.89;100798.47;5397840;25;98292;-87
2024/04/25 03:16:56;;;;;;;4.85;1.45;;;;;;;7.85;58.78;100790.72;5347681;25;97513;-87
2024/04/25 03:19:22;;;;;;;10.00;1.73;;;;;;;7.86;58.98;100795.06;5365313;26;94853;-87
2024/04/25 03:21:47;;;;;;;7.72;2.80;;;;;;;7.86;58.76;100787.28;5354045;26;95643;-87
2024/04/25 03:24:13;;;;;;;5.63;2.53;;;;;;;7.85;58.03;100786.41;5394284;25;98467;-87
2024/04/25 03:26:38;;;;;;;5.97;2.22;;;;;;;7.85;58.90;100789.00;5365854;25;98142;-87
2024/04/25 03:29:05;;;;;;;8.20;2.55;;;;;;;7.87;58.97;100783.84;5367038;26;94866;-87
2024/04/25 03:31:31;;;;;;;3.67;1.33;;;;;;;7.88;58.93;100785.59;5355632;26;94985;-87
2024/04/25 03:33:56;;;;;;;5.30;2.25;;;;;;;7.89;59.02;100779.56;5399236;26;95941;-87
2024/04/25 03:36:21;;;;;;;6.93;2.28;;;;;;;7.90;58.85;100784.78;5353688;25;98601;-86
2024/04/25 03:38:47;;;;;;;6.20;2.28;;;;;;;7.91;58.92;100783.94;5361116;26;94845;-87
2024/04/25 03:41:16;;;;;;;7.63;2.13;;;;;;;7.94;58.89;100788.34;5391907;25;94786;-87
2024/04/25 03:43:42;;;;;;;3.28;1.30;;;;;;;7.93;58.42;100783.97;5382181;25;98339;-87
2024/04/25 03:46:07;;;;;;;6.10;1.23;;;;;;;7.89;58.51;100780.44;5369291;25;97458;-86
2024/04/25 03:48:33;;;;;;;5.47;2.42;;;;;;;7.87;58.80;100778.66;5387196;26;94944;-87
2024/04/25 03:50:58;;;;;;;9.05;2.00;;;;;;;7.84;58.45;100784.63;5365570;25;94992;-87
2024/04/25 03:53:23;;;;;;;4.93;2.20;;;;;;;7.84;58.43;100775.97;5391108;25;95781;-86
2024/04/25 03:55:50;;;;;;;6.43;2.42;;;;;;;7.84;58.60;100783.75;5367548;25;97665;-87
2024/04/25 03:58:15;;;;;;;9.52;3.10;;;;;;;7.83;58.68;100777.72;5386636;25;94793;-87
2024/04/25 04:00:40;;;;;;;6.28;2.20;;;;;;;7.84;58.51;100774.25;5360231;26;94921;-87
2024/04/25 04:03:06;;;;;;;7.38;2.25;;;;;;;7.85;58.48;100776.03;5390132;25;98399;-87
2024/04/25 04:05:32;;;;;;;8.75;1.60;;;;;;;7.87;58.66;100768.25;5374388;26;97771;-87
2024/04/25 04:07:57;;;;;;;5.80;2.22;;;;;;;7.89;58.52;100771.78;5361555;25;94835;-87
2024/04/25 04:10:23;;;;;;;5.28;1.63;;;;;;;7.91;58.93;100770.06;5359451;26;94988;-87
2024/04/25 04:12:48;;;;;;;6.35;1.75;;;;;;;7.92;58.87;100770.13;5386641;25;97807;-86
2024/04/25 04:15:14;;;;;;;5.90;2.45;;;;;;;7.95;58.89;100779.69;5362130;25;98754;-86
2024/04/25 04:17:40;;;;;;;5.45;1.67;;;;;;;7.95;59.26;100772.78;5373197;26;94925;-88
2024/04/25 04:20:05;;;;;;;6.93;1.75;;;;;;;7.96;58.87;100777.13;5364966;26;94942;-88
2024/04/25 04:22:31;;;;;;;6.10;1.67;;;;;;;7.98;59.11;100769.38;5395209;25;95679;-88
2024/04/25 04:24:56;;;;;;;7.70;2.08;;;;;;;7.97;59.10;100773.69;5391043;25;95506;-87
2024/04/25 04:27:22;;;;;;;6.72;2.20;;;;;;;7.97;58.71;100778.03;5362590;26;95028;-86
2024/04/25 04:29:47;;;;;;;6.28;2.15;;;;;;;7.97;58.94;100773.69;5393126;25;94765;-85
2024/04/25 04:32:13;;;;;;;6.70;2.40;;;;;;;7.98;58.89;100777.16;5371384;26;95813;-86
2024/04/25 04:34:38;;;;;;;8.18;2.67;;;;;;;7.98;58.68;100774.56;5359814;25;98488;-87
2024/04/25 04:37:04;;;;;;;9.32;2.85;;;;;;;7.99;58.86;100777.19;5398787;25;94988;-88
2024/04/25 04:39:29;;;;;;;6.72;2.00;;;;;;;8.01;58.97;100772.91;5393526;26;94997;-87
2024/04/25 04:41:55;;;;;;;6.05;2.00;;;;;;;8.04;59.15;100772.13;5401201;26;98335;-88
2024/04/25 04:44:20;;;;;;;9.07;2.90;;;;;;;8.07;58.77;100766.09;5399582;26;98602;-88
2024/04/25 04:46:45;;;;;;;10.13;2.20;;;;;;;8.09;59.02;100764.41;5390140;26;94863;-86
2024/04/25 04:49:11;;;;;;;12.95;2.83;;;;;;;8.08;58.86;100765.25;5392141;26;95070;-87
2024/04/25 04:51:39;;;;;;;7.75;3.28;;;;;;;8.08;59.24;100763.53;5386217;26;97955;-88
2024/04/25 04:54:04;;;;;;;8.75;3.85;;;;;;;8.11;59.24;100767.91;5398175;26;95592;-88
2024/04/25 04:56:30;;;;;;;4.82;2.88;;;;;;;8.14;59.24;100766.25;5390001;26;94803;-87
2024/04/25 04:58:55;;;;;;;5.63;2.05;;;;;;;8.19;59.52;100761.16;5364936;26;94878;-86
2024/04/25 05:01:21;;;;;;;8.10;3.38;;;;;;;8.23;59.35;100754.31;5359729;26;98305;-89
2024/04/25 05:03:46;;;;;;;6.22;1.92;;;;;;;8.28;59.48;100750.09;5388935;25;98087;-85
2024/04/25 05:06:11;;;;;;;8.13;2.42;;;;;;;8.32;59.59;100751.88;5386061;25;94754;-85
2024/04/25 05:08:37;;;;;;;10.00;3.10;;;;;;;8.37;59.30;100750.25;5363935;26;94891;-86
2024/04/25 05:11:02;;;;;;;6.10;2.28;;;;;;;8.42;58.97;100755.56;5397105;25;96070;-87
2024/04/25 05:13:28;;;;;;;9.50;2.90;;;;;;;8.47;59.31;100740.97;5366749;26;98328;-85
2024/04/25 05:15:54;;;;;;;7.40;2.55;;;;;;;8.50;59.29;100743.63;5362166;26;94901;-85
2024/04/25 05:18:19;;;;;;;7.40;2.42;;;;;;;8.50;59.03;100752.31;5390746;25;95136;-85
2024/04/25 05:20:45;;;;;;;6.30;2.00;;;;;;;8.50;58.89;100743.63;5374499;25;98682;-85
2024/04/25 05:23:10;;;;;;;5.97;1.52;;;;;;;8.51;59.01;100745.38;5410752;25;97961;-86
2024/04/25 05:25:36;;;;;;;6.80;1.75;;;;;;;8.51;59.27;100747.97;5356408;25;94969;-86
2024/04/25 05:28:01;;;;;;;7.03;1.70;;;;;;;8.55;59.60;100748.03;5405158;26;94724;-85
2024/04/25 05:30:27;;;;;;;7.30;2.33;;;;;;;8.62;59.38;100753.38;5407838;25;97981;-86
2024/04/25 05:32:53;;;;;;;7.75;2.95;;;;;;;8.67;59.21;100744.81;5404740;25;97879;-85
2024/04/25 05:35:18;;;;;;;6.22;2.58;;;;;;;8.74;59.48;100753.63;5398914;25;95292;-86
2024/04/25 05:37:44;;;;;;;5.28;2.75;;;;;;;8.81;59.45;100745.06;5362921;26;94988;-85
2024/04/25 05:40:10;;;;;;;7.22;2.50;;;;;;;8.92;59.37;100740.94;5373234;26;98396;-85
2024/04/25 05:42:36;;;;;;;8.35;2.70;;;;;;;9.00;59.30;100735.88;5410314;25;98304;-86
2024/04/25 05:45:02;;;;;;;9.90;2.88;;;;;;;9.05;59.20;100729.00;5396102;25;94880;-86
2024/04/25 05:47:27;;;;;;;8.45;3.35;;;;;;;9.07;59.23;100739.44;5364856;26;94857;-85
2024/04/25 05:49:53;;;;;;;6.60;2.65;;;;;;;9.10;59.27;100739.50;5369427;25;95324;-85
2024/04/25 05:52:19;;;;;;;6.80;3.15;;;;;;;9.15;59.13;100743.06;5417176;25;98596;-86
2024/04/25 05:54:45;;;;;;;9.60;3.25;;;;;;;9.20;59.22;100738.81;5374420;26;94750;-86
2024/04/25 05:57:10;;;;;;;9.93;3.58;;;;;;;9.27;59.26;100735.47;5355353;26;94782;-86
2024/04/25 05:59:36;;;;;;;7.20;2.33;;;;;;;9.32;59.38;100731.19;5401604;25;98588;-86
2024/04/25 06:02:02;;;;;;;9.60;3.22;;;;;;;9.39;59.19;100733.88;5374627;26;96149;-85
2024/04/25 06:04:30;;;;;;;11.77;3.72;;;;;;;9.45;58.91;100731.41;5412662;25;94979;-86
2024/04/25 06:06:56;;;;;;;5.85;2.67;;;;;;;9.53;59.27;100730.63;5404849;25;94943;-86
2024/04/25 06:09:22;;;;;;;5.45;2.15;;;;;;;9.59;59.32;100740.28;5404740;25;95690;-86
2024/04/25 06:11:47;;;;;;;7.57;2.95;;;;;;;9.64;59.25;100741.25;5367294;26;97403;-85
2024/04/25 06:14:13;;;;;;;8.45;2.17;;;;;;;9.68;58.71;100736.94;5370595;26;94745;-86
2024/04/25 06:16:39;;;;;;;9.77;2.17;;;;;;;9.71;59.00;100731.75;5366882;26;94967;-85
2024/04/25 06:19:05;;;;;;;6.63;2.20;;;;;;;9.77;59.13;100725.75;5398715;25;96867;-86
2024/04/25 06:21:30;;;;;;;7.18;3.38;;;;;;;9.84;59.09;100725.00;5363584;26;98380;-86
2024/04/25 06:23:56;;;;;;;8.40;3.17;;;;;;;9.98;60.35;100718.25;5391195;26;95034;-86
2024/04/25 06:26:22;;;;;;;11.73;3.90;;;;;;;10.22;60.86;100724.63;5373792;26;94941;-87
2024/04/25 06:28:47;;;;;;;6.60;2.35;;;;;;;10.46;60.36;100727.56;5392213;25;95887;-86
2024/04/25 06:31:12;;;;;;;7.65;2.10;;;;;;;10.66;60.22;100724.28;5372924;25;97736;-85
2024/04/25 06:33:41;;;;;;;6.70;2.47;;;;;;;10.86;59.44;100719.25;5404887;25;95448;-86
2024/04/25 06:36:08;;;;;;;9.20;3.08;;;;;;;11.04;58.93;100723.75;5385232;26;94875;-85
2024/04/25 06:38:34;;;;;;;8.15;2.20;;;;;;;11.19;58.81;100709.94;5356816;26;95920;-86
2024/04/25 06:40:59;;;;;;;8.52;3.17;;;;;;;11.30;58.46;100710.94;5403745;26;97765;-86
2024/04/25 06:43:25;;;;;;;9.50;2.90;;;;;;;11.36;57.53;100716.19;5403157;25;94862;-86
2024/04/25 06:45:50;;;;;;;10.77;3.25;;;;;;;11.40;57.44;100706.63;5371604;26;95059;-86
2024/04/25 06:48:15;;;;;;;7.80;3.15;;;;;;;11.41;57.30;100708.41;5364523;26;112497;-86
2024/04/25 06:50:44;;;;;;;10.48;2.50;;;;;;;11.42;57.25;100713.59;5401103;25;95838;-85
2024/04/25 06:53:10;;;;;;;9.57;3.20;;;;;;;11.40;56.93;100710.09;5385987;26;94753;-85
2024/04/25 06:55:35;;;;;;;8.30;2.45;;;;;;;11.37;56.71;100709.22;5404962;25;94989;-87
2024/04/25 06:58:01;;;;;;;10.18;2.75;;;;;;;11.33;56.67;100710.06;5381794;25;97731;-85
2024/04/25 07:00:26;;;;;;;7.10;2.17;;;;;;;11.30;56.79;100703.09;5410694;25;95960;-86
2024/04/25 07:02:52;;;;;;;6.65;3.33;;;;;;;11.28;56.79;100699.56;5396424;25;94964;-86
2024/04/25 07:05:17;;;;;;;6.97;2.05;;;;;;;11.28;56.60;100702.19;5369119;26;94842;-85
2024/04/25 07:07:43;;;;;;;9.40;2.47;;;;;;;11.27;56.86;100696.97;5357008;26;98486;-85
2024/04/25 07:10:09;;;;;;;7.18;2.30;;;;;;;11.29;56.76;100695.25;5367385;26;97884;-86
2024/04/25 07:12:35;;;;;;;8.98;2.53;;;;;;;11.33;57.07;100692.66;5395313;25;94759;-86
2024/04/25 07:15:05;;;;;;;9.30;2.88;;;;;;;11.39;56.95;100697.03;5374194;26;94976;-85
2024/04/25 07:17:30;;;;;;;7.38;3.00;;;;;;;11.42;56.69;100694.47;5374555;26;95995;-85
2024/04/25 07:19:56;;;;;;;8.93;2.67;;;;;;;11.42;56.38;100695.31;5393538;25;98849;-86
2024/04/25 07:22:21;;;;;;;5.25;1.90;;;;;;;11.42;56.30;100687.47;5380322;26;96416;-86
2024/04/25 07:24:47;;;;;;;7.22;3.17;;;;;;;11.46;56.59;100687.50;5367713;25;94966;-86
2024/04/25 07:27:12;;;;;;;12.38;3.30;;;;;;;11.47;56.35;100687.53;5374224;25;95755;-85
2024/04/25 07:29:46;;;;;;;6.97;2.50;;;;;;;11.49;56.48;100688.41;5410515;25;95674;-85
2024/04/25 07:32:16;;;;;;;5.90;2.92;;;;;;;11.55;56.38;100690.19;5364670;26;95031;-85
2024/04/25 07:34:44;;;;;;;;;;;;;;;11.55;56.87;100693.69;5366732;26;95040;-86
2024/04/25 07:37:10;;;;;;;8.70;2.38;;;;;;;11.67;56.89;100689.38;5426408;25;98604;-86
2024/04/25 07:39:35;;;;;;;10.27;2.47;;;;;;;11.94;57.71;100692.19;5375380;26;98831;-86
2024/04/25 07:42:01;;;;;;;4.90;2.47;;;;;;;12.13;57.39;100693.13;5405454;25;94858;-86
2024/04/25 07:44:26;;;;;;;6.25;2.95;;;;;;;12.24;56.46;100692.28;5390580;25;94974;-86
2024/04/25 07:46:52;;;;;;;7.18;2.53;;;;;;;12.29;55.60;100690.56;5408079;25;96038;-86
2024/04/25 07:49:17;;;;;;;6.43;2.08;;;;;;;12.28;55.36;100683.56;5425241;25;95919;-86
2024/04/25 07:51:43;;;;;;;7.18;2.85;;;;;;;12.26;55.04;100680.09;5401937;25;94887;-86
2024/04/25 07:54:09;;;;;;;9.02;2.13;;;;;;;12.24;54.83;100689.66;5374372;25;95004;-85
2024/04/25 07:56:38;;;;;;;5.28;2.55;;;;;;;12.15;54.11;100682.66;5406008;25;97991;-85
2024/04/25 07:59:05;;;;;;;8.73;1.52;;;;;;;12.03;53.88;100686.09;5430326;25;98508;-86
2024/04/25 08:01:30;;;;;;;5.43;1.70;;;;;;;11.90;53.94;100684.28;5426876;25;95041;-86
2024/04/25 08:03:56;;;;;;;3.63;1.92;;;;;;;11.82;54.37;100676.41;5356704;26;94993;-87
2024/04/25 08:06:21;;;;;;;7.60;2.88;;;;;;;11.81;55.51;100674.66;5375009;26;97295;-86
2024/04/25 08:08:47;;;;;;;5.85;2.05;;;;;;;12.10;57.64;100689.63;5414452;25;97906;-85
2024/04/25 08:11:12;;;;;;;4.70;1.52;;;;;;;12.45;57.17;100679.25;5403470;25;94854;-86
2024/04/25 08:13:38;;;;;;;6.18;1.65;;;;;;;12.65;56.21;100676.66;5398882;26;94927;-86
2024/04/25 08:16:04;;;;;;;7.63;2.35;;;;;;;12.88;56.36;100671.47;5406262;25;95790;-86
2024/04/25 08:18:30;;;;;;;7.97;2.55;;;;;;;13.02;54.77;100673.22;5386735;26;98531;-85
2024/04/25 08:20:56;;;;;;;4.38;2.20;;;;;;;13.01;53.54;100674.97;5374586;26;94989;-86
2024/04/25 08:23:22;;;;;;;5.43;1.73;;;;;;;12.92;53.20;100668.00;5380865;26;95073;-85
2024/04/25 08:25:48;;;;;;;3.60;1.23;;;;;;;12.81;52.59;100666.22;5422253;25;95851;-85
2024/04/25 08:28:13;;;;;;;7.57;1.73;;;;;;;12.68;52.28;100665.34;5383570;25;98579;-86
2024/04/25 08:30:38;;;;;;;3.05;1.17;;;;;;;12.54;52.00;100673.19;5400521;25;95035;-86
2024/04/25 08:33:04;;;;;;;5.50;1.77;;;;;;;12.40;51.85;100667.91;5377542;26;94946;-86
2024/04/25 08:35:29;;;;;;;4.55;1.30;;;;;;;12.27;51.63;100669.63;5416796;25;98429;-85
2024/04/25 08:37:55;;;;;;;5.00;1.92;;;;;;;12.16;51.99;100668.75;5388305;25;97912;-86
2024/04/25 08:40:21;;;;;;;6.90;1.52;;;;;;;12.05;51.72;100675.66;5380745;25;94867;-84
2024/04/25 08:42:50;;;;;;;4.13;1.80;;;;;;;11.92;52.04;100675.59;5434016;25;94844;-85
2024/04/25 08:45:16;;;;;;;7.20;2.47;;;;;;;11.84;52.34;100677.28;5370516;26;97440;-85
2024/04/25 08:47:42;;;;;;;5.00;1.77;;;;;;;11.80;52.38;100673.78;5420923;25;95504;-85
2024/04/25 08:50:09;;;;;;;7.28;2.28;;;;;;;11.78;52.86;100672.00;5395154;26;94777;-86
2024/04/25 08:52:37;;;;;;;4.38;1.20;;;;;;;11.77;52.82;100665.94;5405923;26;94934;-85
2024/04/25 08:55:05;;;;;;;5.07;1.70;;;;;;;11.78;53.17;100669.41;5385418;25;96016;-86
2024/04/25 08:57:31;;;;;;;3.67;2.40;;;;;;;11.81;53.22;100667.69;5405653;25;95466;-86
2024/04/25 08:59:57;;;;;;;4.15;2.15;;;;;;;11.82;53.21;100668.56;5376149;26;94772;-85
2024/04/25 09:02:25;;;;;;;7.68;2.20;;;;;;;11.79;52.56;100661.56;5391984;26;94778;-86
2024/04/25 09:04:54;;;;;;;4.28;1.30;;;;;;;11.73;52.66;100658.94;5407930;25;97866;-86
2024/04/25 09:07:23;;;;;;;5.38;1.60;;;;;;;11.66;52.45;100672.84;5382816;25;97785;-86
2024/04/25 09:09:49;;;;;;;3.17;1.23;;;;;;;11.58;52.63;100667.56;5407754;25;94758;-85
2024/04/25 09:12:14;;;;;;;8.38;2.35;;;;;;;11.50;52.70;100657.97;5391528;25;95012;-86
2024/04/25 09:14:40;;;;;;;8.05;2.40;;;;;;;11.44;53.00;100664.00;5368348;25;97425;-86
2024/04/25 09:17:12;;;;;;;6.47;1.95;;;;;;;11.35;52.99;100675.25;5412109;25;98573;-86
2024/04/25 09:19:40;;;;;;;4.57;2.20;;;;;;;11.28;53.12;100670.00;5361330;26;94934;-86
2024/04/25 09:22:06;;;;;;;3.22;1.20;;;;;;;11.16;53.02;100674.28;5406594;26;94962;-87
2024/04/25 09:24:31;;;;;;;5.55;1.40;;;;;;;11.06;53.43;100669.84;5374792;26;98669;-88
2024/04/25 09:26:56;;;;;;;6.28;2.45;;;;;;;11.03;53.97;100656.75;5388205;26;97815;-88
2024/04/25 09:29:22;;;;;;;4.13;2.33;;;;;;;11.03;54.13;100660.25;5372249;26;95013;-88
2024/04/25 09:31:51;;;;;;;5.47;2.80;;;;;;;11.07;55.13;100655.94;5382280;25;94872;-87
2024/04/25 09:34:16;;;;;;;7.65;2.72;;;;;;;11.16;55.13;100653.38;5416325;25;97981;-88
2024/04/25 09:36:42;;;;;;;6.57;2.15;;;;;;;11.21;55.28;100642.94;5390616;26;95563;-87
2024/04/25 09:39:08;;;;;;;5.88;2.05;;;;;;;11.26;54.88;100636.03;5393867;25;95008;-88
2024/04/25 09:41:34;;;;;;;10.93;3.05;;;;;;;11.30;55.05;100631.69;5414134;25;95570;-87
2024/04/25 09:44:00;;;;;;;6.95;2.42;;;;;;;11.30;55.02;100634.31;5419252;25;97676;-87
2024/04/25 09:46:38;;;;;;;6.18;2.60;;;;;;;11.29;54.68;100633.44;5424123;25;95974;-87
2024/04/25 09:49:06;;;;;;;5.38;1.92;;;;;;;11.31;54.79;100631.72;5424279;25;94886;-87
2024/04/25 09:51:49;;;;;;;6.20;2.35;;;;;;;11.32;54.79;100632.56;5409665;25;94952;-88
2024/04/25 09:54:19;;;;;;;7.68;3.15;;;;;;;11.33;54.90;100634.34;5424990;25;95573;-87
2024/04/25 09:56:48;;;;;;;7.47;2.17;;;;;;;11.32;54.71;100625.63;5376563;26;95830;-88
2024/04/25 09:59:20;;;;;;;8.32;3.63;;;;;;;11.33;54.68;100621.28;5407592;25;94850;-87
2024/04/25 10:01:47;;;;;;;7.30;2.33;;;;;;;11.31;54.83;100618.66;5397169;26;94871;-87
2024/04/25 10:04:13;;;;;;;9.30;3.55;;;;;;;11.27;54.85;100618.66;5415940;25;95443;-87
2024/04/25 10:06:39;;;;;;;5.25;3.40;;;;;;;11.27;55.16;100610.81;5407102;25;95939;-87
2024/04/25 10:09:05;;;;;;;10.25;3.50;;;;;;;11.26;54.90;100619.50;5408111;26;94739;-87
2024/04/25 10:11:30;;;;;;;5.50;3.08;;;;;;;11.20;54.78;100623.81;5405577;26;94892;-87
2024/04/25 10:13:56;;;;;;;7.32;3.63;;;;;;;11.13;54.80;100631.59;5376156;26;98807;-88
2024/04/25 10:16:22;;;;;;;8.25;3.03;;;;;;;11.06;54.64;100625.47;5386585;26;95552;-88
2024/04/25 10:18:49;;;;;;;7.38;3.42;;;;;;;10.98;54.49;100619.31;5389682;26;94775;-87
2024/04/25 10:21:31;;;;;;;5.65;3.20;;;;;;;10.85;54.65;100613.13;5414174;25;95092;-89
2024/04/25 10:24:09;;;;;;;5.95;3.00;;;;;;;10.71;54.82;100617.34;5417540;26;95037;-89
2024/04/25 10:26:34;;;;;;;5.85;2.47;;;;;;;10.65;55.09;100620.78;5400278;26;95852;-89
2024/04/25 10:29:03;;;;;;;6.30;2.38;;;;;;;10.61;55.58;100619.03;5367999;26;98940;-88
2024/04/25 10:31:39;;;;;;;6.35;2.97;;;;;;;10.57;55.47;100618.13;5369628;26;94784;-89
2024/04/25 10:34:06;;;;;;;5.82;2.42;;;;;;;10.60;55.80;100622.47;5372629;26;95074;-89
2024/04/25 10:36:32;;;;;;;6.78;2.80;;;;;;;10.62;56.04;100613.84;5358210;26;95921;-89
2024/04/25 10:38:58;;;;;;;6.82;2.55;;;;;;;10.67;56.07;100608.63;5361100;26;98512;-89
2024/04/25 10:41:38;;;;;;;5.32;1.92;;;;;;;10.75;55.90;100598.25;5378554;26;94917;-89
2024/04/25 10:44:07;;;;;;;7.68;2.10;;;;;;;10.82;55.71;100595.72;5391316;26;95000;-88
2024/04/25 10:46:35;;;;;;;6.13;1.75;;;;;;;10.84;55.32;100593.13;5389816;26;97980;-89
2024/04/25 10:49:01;;;;;;;10.75;2.75;;;;;;;10.86;55.51;100586.19;5390596;26;98737;-89
2024/04/25 10:51:27;;;;;;;5.30;2.67;;;;;;;10.88;55.03;100587.06;5390340;26;94812;-89
2024/04/25 10:53:55;;;;;;;9.05;2.35;;;;;;;10.91;55.07;100586.19;5360908;26;94965;-88
2024/04/25 10:56:21;;;;;;;4.50;1.80;;;;;;;10.93;54.96;100584.50;5395375;26;98024;-89
2024/04/25 10:58:55;;;;;;;5.07;1.92;;;;;;;10.97;55.20;100587.13;5401667;26;95846;-89
2024/04/25 11:01:25;;;;;;;4.53;1.92;;;;;;;11.04;54.96;100582.81;5368461;26;94966;-89
2024/04/25 11:04:03;;;;;;;9.35;2.35;;;;;;;11.09;54.94;100580.22;5407149;26;94890;-88
2024/04/25 11:06:36;;;;;;;6.32;2.53;;;;;;;11.15;54.59;100572.44;5359296;26;98440;-88
2024/04/25 11:09:04;;;;;;;6.78;2.42;;;;;;;11.23;55.19;100579.47;5399704;26;98667;-89
2024/04/25 11:11:29;;;;;;;7.05;2.60;;;;;;;11.32;55.07;100569.91;5378957;26;94860;-88
2024/04/25 11:13:55;;;;;;;6.28;2.67;;;;;;;11.40;54.84;100576.06;5386842;26;94988;-88
2024/04/25 11:16:20;;;;;;;6.85;1.83;;;;;;;11.48;55.08;100563.03;5384151;26;97728;-88
2024/04/25 11:18:51;;;;;;;5.03;2.55;;;;;;;11.59;55.03;100558.75;5397254;25;96897;-89
2024/04/25 11:21:18;;;;;;;6.65;3.20;;;;;;;11.70;54.60;100564.88;5387611;26;94965;-88
2024/04/25 11:23:43;;;;;;;5.07;2.20;;;;;;;11.76;53.92;100550.94;5408975;26;94949;-89
2024/04/25 11:26:09;;;;;;;10.13;2.58;;;;;;;11.79;54.02;100553.56;5389872;26;98671;-87
2024/04/25 11:28:36;;;;;;;8.85;3.33;;;;;;;11.87;54.40;100554.47;5407332;26;98333;-88
2024/04/25 11:31:01;;;;;;;6.07;2.78;;;;;;;11.99;54.25;100544.06;5381679;26;95112;-88